Monday, May 30, 2016, 12:46 AM EDT

KLKU, Louisa, Louisa County Airport/freeman Field

Location: Louisa, VA, United States Lat: 38.01
Local Time: 12:46 AM EDT ( 4:46 GMT) Lon: -77.97
Time Zone: US/Eastern Elev: 492 ft

Show me the last for .
Show Decoded

2016-05-30 00:15 METAR KLKU 300415Z AUTO 00000KT 7SM OVC032 21/19 A3004 RMK AO2 =
2016-05-29 23:55 METAR KLKU 300355Z AUTO 00000KT 10SM BKN036 21/20 A3006 RMK AO2 =
2016-05-29 23:35 METAR KLKU 300335Z AUTO 32003KT 7SM -DZ OVC036 21/20 A3007 RMK AO2 =
2016-05-29 23:15 METAR KLKU 300315Z AUTO 00000KT 10SM OVC034 21/20 A3008 RMK AO2 =
2016-05-29 22:55 METAR KLKU 300255Z AUTO 00000KT 10SM OVC038 21/20 A3007 RMK AO2 =
2016-05-29 22:35 METAR KLKU 300235Z AUTO 00000KT 10SM BKN041 OVC050 21/20 A3007 RMK AO2 =
2016-05-29 22:15 METAR KLKU 300215Z AUTO 00000KT 10SM BKN041 OVC048 22/20 A3007 RMK AO2 =
2016-05-29 21:55 METAR KLKU 300155Z AUTO 00000KT 10SM BKN041 OVC080 22/21 A3007 RMK AO2 =
2016-05-29 21:35 METAR KLKU 300135Z AUTO 03003KT 10SM BKN043 BKN060 OVC080 22/20 A3006 RMK AO2 =
2016-05-29 21:15 METAR KLKU 300115Z AUTO 00000KT 10SM OVC045 22/20 A3007 RMK AO2 =
2016-05-29 20:55 METAR KLKU 300055Z AUTO 05004KT 10SM OVC043 22/20 A3007 RMK AO2 P0002 =
2016-05-29 20:35 METAR KLKU 300035Z AUTO 00000KT 10SM BKN041 OVC050 22/21 A3007 RMK AO2 P0002 =
2016-05-29 20:15 METAR KLKU 300015Z AUTO 00000KT 10SM RA SCT027 SCT033 OVC039 22/21 A3007 RMK AO2
                 P0002 =
2016-05-29 19:55 METAR KLKU 292355Z AUTO 00000KT 4SM RA SCT027 BKN034 OVC060 22/21 A3006 RMK AO2
                 P0013 =
2016-05-29 19:35 METAR KLKU 292335Z AUTO 00000KT 7SM RA SCT022 BKN030 OVC075 22/21 A3007 RMK AO2
                 P0007 =
2016-05-29 19:15 METAR KLKU 292315Z AUTO 10003KT 23/22 A3007 RMK AO2 P0001 PWINO =
2016-05-29 18:55 METAR KLKU 292255Z AUTO 08004KT 7SM RA SCT043 OVC050 23/22 A3006 RMK AO2 P0002 =
2016-05-29 18:35 METAR KLKU 292235Z AUTO 00000KT 10SM SCT047 OVC060 25/21 A3006 RMK AO2 =
2016-05-29 18:15 METAR KLKU 292215Z AUTO 00000KT 10SM BKN047 OVC060 26/21 A3006 RMK AO2 =
2016-05-29 17:55 METAR KLKU 292155Z AUTO 00000KT 10SM BKN045 OVC070 26/21 A3006 RMK AO2 =
2016-05-29 17:35 METAR KLKU 292135Z AUTO 07003KT 10SM SCT045 BKN055 OVC100 27/19 A3006 RMK AO2 =
2016-05-29 17:15 METAR KLKU 292115Z AUTO 00000KT 10SM SCT055 OVC100 27/19 A3006 RMK AO2 =
2016-05-29 16:55 METAR KLKU 292055Z AUTO 00000KT 10SM SCT065 BKN100 27/21 A3006 RMK AO2 =
2016-05-29 16:35 METAR KLKU 292035Z AUTO 00000KT 10SM SCT050 BKN065 27/21 A3007 RMK AO2 =
2016-05-29 16:15 METAR KLKU 292015Z AUTO 28003KT 10SM SCT050 BKN065 27/22 A3008 RMK AO2 =
2016-05-29 15:55 METAR KLKU 291955Z AUTO 00000KT 10SM BKN065 27/22 A3008 RMK AO2 =
2016-05-29 15:35 METAR KLKU 291935Z AUTO 26005KT 10SM CLR 27/23 A3009 RMK AO2 =
2016-05-29 15:15 METAR KLKU 291915Z AUTO 27004KT 10SM -DZ SCT043 26/22 A3009 RMK AO2 =
2016-05-29 14:55 METAR KLKU 291855Z AUTO 00000KT 10SM DZ SCT043 26/22 A3010 RMK AO2 =
2016-05-29 14:35 METAR KLKU 291835Z AUTO 00000KT 10SM RA CLR 27/22 A3011 RMK AO2 =
2016-05-29 14:15 METAR KLKU 291815Z AUTO 00000KT 10SM CLR 28/22 A3011 RMK AO2 =
2016-05-29 13:55 METAR KLKU 291755Z AUTO 00000KT 10SM -RA CLR 28/21 A3011 RMK AO2 =
2016-05-29 13:35 METAR KLKU 291735Z AUTO 21004KT 10SM CLR 29/21 A3011 RMK AO2 =
2016-05-29 13:15 METAR KLKU 291715Z AUTO 12003KT 10SM CLR 29/21 A3011 RMK AO2 =
2016-05-29 12:55 METAR KLKU 291655Z AUTO 14003KT 10SM CLR 29/21 A3012 RMK AO2 =
2016-05-29 12:35 METAR KLKU 291635Z AUTO 00000KT 10SM SCT034 28/21 A3012 RMK AO2 =
2016-05-29 12:15 METAR KLKU 291615Z AUTO 00000KT 10SM SCT032 28/21 A3012 RMK AO2 =
2016-05-29 11:55 METAR KLKU 291555Z AUTO 23004KT 10SM SCT028 BKN034 29/21 A3013 RMK AO2 =
2016-05-29 11:35 METAR KLKU 291535Z AUTO 00000KT 10SM CLR 28/21 A3013 RMK AO2 =
2016-05-29 11:15 METAR KLKU 291515Z AUTO 00000KT 10SM CLR 28/22 A3013 RMK AO2 =
2016-05-29 10:55 METAR KLKU 291455Z AUTO 00000KT 10SM CLR 27/22 A3013 RMK AO2 =
2016-05-29 10:35 METAR KLKU 291435Z AUTO 23003KT 10SM CLR 27/22 A3013 RMK AO2 =
2016-05-29 10:15 METAR KLKU 291415Z AUTO 23005KT 10SM CLR 27/22 A3014 RMK AO2 =
2016-05-29 09:55 METAR KLKU 291355Z AUTO 00000KT 10SM CLR 26/22 A3014 RMK AO2 =
2016-05-29 09:35 METAR KLKU 291335Z AUTO 26003KT 10SM CLR 26/22 A3015 RMK AO2 =
2016-05-29 09:15 METAR KLKU 291315Z AUTO 00000KT 10SM CLR 25/21 A3015 RMK AO2 =
2016-05-29 08:55 METAR KLKU 291255Z AUTO 23005KT 10SM CLR 24/21 A3015 RMK AO2 =
2016-05-29 08:35 METAR KLKU 291235Z AUTO 00000KT 10SM CLR 24/21 A3014 RMK AO2 =
2016-05-29 08:15 METAR KLKU 291215Z AUTO 20004KT 10SM CLR 23/21 A3014 RMK AO2 =
2016-05-29 07:55 METAR KLKU 291155Z AUTO 00000KT 10SM CLR 23/20 A3014 RMK AO2 =
2016-05-29 07:35 METAR KLKU 291135Z AUTO 00000KT 10SM CLR 22/20 A3015 RMK AO2 =
2016-05-29 07:15 METAR KLKU 291115Z AUTO 00000KT 10SM CLR 20/19 A3014 RMK AO2 =
2016-05-29 06:55 METAR KLKU 291055Z AUTO 00000KT 1 3/4SM BR VV007 17/17 A3015 RMK AO2 VIS 3/4V4 =
2016-05-29 06:35 METAR KLKU 291035Z AUTO 00000KT 1/4SM FG VV002 16/15 A3014 RMK AO2 =
2016-05-29 06:15 METAR KLKU 291015Z AUTO 00000KT 1/2SM FG VV005 16/15 A3014 RMK AO2 =
2016-05-29 05:55 METAR KLKU 290955Z AUTO 00000KT 1 1/4SM BR VV007 16/16 A3013 RMK AO2 =
2016-05-29 05:35 METAR KLKU 290935Z AUTO 00000KT 1/2SM FG VV005 16/15 A3014 RMK AO2 =
2016-05-29 05:15 METAR KLKU 290915Z AUTO 00000KT 1SM BR VV007 16/15 A3013 RMK AO2 =
2016-05-29 04:55 METAR KLKU 290855Z AUTO 00000KT 1 3/4SM BR VV007 16/16 A3013 RMK AO2 VIS 3/4V3 =
2016-05-29 04:35 METAR KLKU 290835Z AUTO 00000KT 4SM BR CLR 16/16 A3012 RMK AO2 =
2016-05-29 04:15 METAR KLKU 290815Z AUTO 00000KT 3SM BR CLR 17/16 A3012 RMK AO2 =
2016-05-29 03:55 METAR KLKU 290755Z AUTO 00000KT 5SM BR CLR 17/16 A3012 RMK AO2 =
2016-05-29 03:35 METAR KLKU 290735Z AUTO 00000KT 10SM CLR 18/17 A3012 RMK AO2 =
2016-05-29 03:15 METAR KLKU 290715Z AUTO 17003KT 10SM CLR 17/16 A3012 RMK AO2 =
2016-05-29 02:55 METAR KLKU 290655Z AUTO 00000KT 10SM CLR 16/16 A3013 RMK AO2 =
2016-05-29 02:35 METAR KLKU 290635Z AUTO 00000KT 7SM CLR 16/14 A3013 RMK AO2 =
2016-05-29 02:15 METAR KLKU 290615Z AUTO 00000KT 7SM CLR 15/14 A3013 RMK AO2 =
2016-05-29 01:55 METAR KLKU 290555Z AUTO 00000KT 5SM BR CLR 16/15 A3013 RMK AO2 =
2016-05-29 01:35 METAR KLKU 290535Z AUTO 00000KT 10SM CLR 16/16 A3014 RMK AO2 =
2016-05-29 01:15 METAR KLKU 290515Z AUTO 00000KT 10SM CLR 16/15 A3015 RMK AO2 =
2016-05-29 00:55 METAR KLKU 290455Z AUTO 00000KT 10SM CLR 17/16 A3015 RMK AO2 =

Support USWX by starting your Amazon purchase here.